sensor_id;sensor_type;location;lat;lon;timestamp;pressure;altitude;pressure_sealevel;temperature;humidity
42003;BME280;27693;50.506;30.832;2023-03-15T00:00:01;99137.11;;;4.89;71.49
42003;BME280;27693;50.506;30.832;2023-03-15T00:01:10;99135.48;;;4.86;70.95
42003;BME280;27693;50.506;30.832;2023-03-15T00:02:12;99133.13;;;4.78;69.98
42003;BME280;27693;50.506;30.832;2023-03-15T00:03:15;99134.77;;;4.81;71.22
42003;BME280;27693;50.506;30.832;2023-03-15T00:04:17;99130.69;;;4.74;70.68
42003;BME280;27693;50.506;30.832;2023-03-15T00:05:20;99131.30;;;4.82;71.95
42003;BME280;27693;50.506;30.832;2023-03-15T00:06:23;99133.13;;;4.78;70.82
42003;BME280;27693;50.506;30.832;2023-03-15T00:07:25;99124.11;;;4.92;73.89
42003;BME280;27693;50.506;30.832;2023-03-15T00:08:28;99130.61;;;5.04;74.76
42003;BME280;27693;50.506;30.832;2023-03-15T00:09:30;99131.82;;;4.93;70.80
42003;BME280;27693;50.506;30.832;2023-03-15T00:10:33;99125.58;;;5.01;73.46
42003;BME280;27693;50.506;30.832;2023-03-15T00:11:35;99122.20;;;4.99;71.87
42003;BME280;27693;50.506;30.832;2023-03-15T00:12:38;99125.66;;;4.98;72.16
42003;BME280;27693;50.506;30.832;2023-03-15T00:13:41;99122.25;;;4.97;72.19
42003;BME280;27693;50.506;30.832;2023-03-15T00:14:44;99120.98;;;5.09;73.31
42003;BME280;27693;50.506;30.832;2023-03-15T00:15:51;99111.08;;;4.96;71.47
42003;BME280;27693;50.506;30.832;2023-03-15T00:16:55;99113.78;;;4.93;72.20
42003;BME280;27693;50.506;30.832;2023-03-15T00:17:57;99109.70;;;4.86;71.72
42003;BME280;27693;50.506;30.832;2023-03-15T00:18:59;99114.69;;;4.91;71.17
42003;BME280;27693;50.506;30.832;2023-03-15T00:20:01;99110.99;;;4.73;70.91
42003;BME280;27693;50.506;30.832;2023-03-15T00:21:05;99107.13;;;4.86;74.34
42003;BME280;27693;50.506;30.832;2023-03-15T00:22:07;99102.80;;;4.87;74.51
42003;BME280;27693;50.506;30.832;2023-03-15T00:23:10;99111.42;;;4.86;73.06
42003;BME280;27693;50.506;30.832;2023-03-15T00:24:12;99098.80;;;4.78;72.85
42003;BME280;27693;50.506;30.832;2023-03-15T00:25:14;99102.92;;;4.84;74.53
42003;BME280;27693;50.506;30.832;2023-03-15T00:26:17;99099.54;;;4.82;72.01
42003;BME280;27693;50.506;30.832;2023-03-15T00:27:19;99099.68;;;4.77;71.21
42003;BME280;27693;50.506;30.832;2023-03-15T00:28:22;99105.38;;;4.60;71.07
42003;BME280;27693;50.506;30.832;2023-03-15T00:29:27;99111.27;;;4.63;71.43
42003;BME280;27693;50.506;30.832;2023-03-15T00:30:30;99104.48;;;4.61;70.61
42003;BME280;27693;50.506;30.832;2023-03-15T00:31:32;99104.54;;;4.59;70.77
42003;BME280;27693;50.506;30.832;2023-03-15T00:32:35;99096.01;;;4.57;70.97
42003;BME280;27693;50.506;30.832;2023-03-15T00:33:39;99101.43;;;4.48;70.59
42003;BME280;27693;50.506;30.832;2023-03-15T00:34:42;99096.95;;;4.55;73.11
42003;BME280;27693;50.506;30.832;2023-03-15T00:35:46;99099.47;;;4.56;72.31
42003;BME280;27693;50.506;30.832;2023-03-15T00:36:49;99099.39;;;4.59;72.19
42003;BME280;27693;50.506;30.832;2023-03-15T00:37:54;99095.73;;;4.67;74.45
42003;BME280;27693;50.506;30.832;2023-03-15T00:38:58;99096.56;;;4.67;72.82
42003;BME280;27693;50.506;30.832;2023-03-15T00:40:00;99094.04;;;4.66;72.94
42003;BME280;27693;50.506;30.832;2023-03-15T00:41:09;99099.55;;;4.53;72.18
42003;BME280;27693;50.506;30.832;2023-03-15T00:42:13;99095.31;;;4.52;71.61
42003;BME280;27693;50.506;30.832;2023-03-15T00:43:19;99099.55;;;4.53;73.39
42003;BME280;27693;50.506;30.832;2023-03-15T00:44:24;99101.24;;;4.54;72.57
42003;BME280;27693;50.506;30.832;2023-03-15T00:45:28;99088.28;;;4.57;74.01
42003;BME280;27693;50.506;30.832;2023-03-15T00:46:30;99092.34;;;4.64;73.55
42003;BME280;27693;50.506;30.832;2023-03-15T00:47:37;99101.22;;;4.56;72.65
42003;BME280;27693;50.506;30.832;2023-03-15T00:48:56;99101.16;;;4.57;74.18
42003;BME280;27693;50.506;30.832;2023-03-15T00:49:59;99099.55;;;4.53;72.60
42003;BME280;27693;50.506;30.832;2023-03-15T00:51:04;99090.24;;;4.49;72.72
42003;BME280;27693;50.506;30.832;2023-03-15T00:52:06;99094.59;;;4.47;73.41
42003;BME280;27693;50.506;30.832;2023-03-15T00:53:09;99096.64;;;4.64;76.15
42003;BME280;27693;50.506;30.832;2023-03-15T00:54:12;99090.58;;;4.67;75.22
42003;BME280;27693;50.506;30.832;2023-03-15T00:55:16;99089.99;;;4.57;74.13
42003;BME280;27693;50.506;30.832;2023-03-15T00:56:22;99089.77;;;4.64;74.38
42003;BME280;27693;50.506;30.832;2023-03-15T00:57:25;99095.61;;;4.70;76.47
42003;BME280;27693;50.506;30.832;2023-03-15T00:58:28;99095.81;;;4.63;74.39
42003;BME280;27693;50.506;30.832;2023-03-15T00:59:31;99083.33;;;4.78;76.25
42003;BME280;27693;50.506;30.832;2023-03-15T01:00:38;99081.18;;;4.64;73.84
42003;BME280;27693;50.506;30.832;2023-03-15T01:01:42;99082.98;;;4.62;75.30
42003;BME280;27693;50.506;30.832;2023-03-15T01:02:47;99082.23;;;4.58;75.45
42003;BME280;27693;50.506;30.832;2023-03-15T01:03:50;99085.02;;;4.79;76.53
42003;BME280;27693;50.506;30.832;2023-03-15T01:04:53;99080.55;;;4.57;73.83
42003;BME280;27693;50.506;30.832;2023-03-15T01:05:55;99083.76;;;4.64;75.02
42003;BME280;27693;50.506;30.832;2023-03-15T01:06:58;99084.02;;;4.56;74.49
42003;BME280;27693;50.506;30.832;2023-03-15T01:08:00;99084.02;;;4.56;76.85
42003;BME280;27693;50.506;30.832;2023-03-15T01:09:05;99086.84;;;4.48;74.03
42003;BME280;27693;50.506;30.832;2023-03-15T01:10:10;99082.62;;;4.46;74.37
42003;BME280;27693;50.506;30.832;2023-03-15T01:11:16;99083.27;;;4.53;76.35
42003;BME280;27693;50.506;30.832;2023-03-15T01:12:18;99077.36;;;4.49;75.04
42003;BME280;27693;50.506;30.832;2023-03-15T01:13:20;99086.09;;;4.45;75.05
42003;BME280;27693;50.506;30.832;2023-03-15T01:14:23;99094.39;;;4.53;77.54
42003;BME280;27693;50.506;30.832;2023-03-15T01:15:26;99085.90;;;4.51;76.34
42003;BME280;27693;50.506;30.832;2023-03-15T01:16:29;99088.88;;;4.37;74.78
42003;BME280;27693;50.506;30.832;2023-03-15T01:17:32;99088.23;;;4.30;74.09
42003;BME280;27693;50.506;30.832;2023-03-15T01:18:37;99086.81;;;4.20;74.08
42003;BME280;27693;50.506;30.832;2023-03-15T01:19:39;99078.58;;;4.09;74.67
42003;BME280;27693;50.506;30.832;2023-03-15T01:20:42;99083.20;;;3.97;74.61
42003;BME280;27693;50.506;30.832;2023-03-15T01:21:46;99088.56;;;3.90;75.54
42003;BME280;27693;50.506;30.832;2023-03-15T01:22:51;99087.22;;;3.76;76.37
42003;BME280;27693;50.506;30.832;2023-03-15T01:23:54;99087.22;;;3.76;76.37
42003;BME280;27693;50.506;30.832;2023-03-15T01:24:56;99089.73;;;3.78;76.36
42003;BME280;27693;50.506;30.832;2023-03-15T01:26:00;99092.42;;;3.75;76.37
42003;BME280;27693;50.506;30.832;2023-03-15T01:27:02;99103.59;;;3.74;76.74
42003;BME280;27693;50.506;30.832;2023-03-15T01:28:05;99100.19;;;3.73;76.92
42003;BME280;27693;50.506;30.832;2023-03-15T01:29:10;99099.25;;;3.76;77.37
42003;BME280;27693;50.506;30.832;2023-03-15T01:30:14;99091.41;;;3.80;77.40
42003;BME280;27693;50.506;30.832;2023-03-15T01:31:20;99098.27;;;3.80;77.14
42003;BME280;27693;50.506;30.832;2023-03-15T01:32:23;99099.96;;;3.81;77.14
42003;BME280;27693;50.506;30.832;2023-03-15T01:33:26;99101.66;;;3.82;77.84
42003;BME280;27693;50.506;30.832;2023-03-15T01:34:29;99099.96;;;3.81;77.21
42003;BME280;27693;50.506;30.832;2023-03-15T01:35:32;99100.97;;;3.75;77.38
42003;BME280;27693;50.506;30.832;2023-03-15T01:36:35;99093.30;;;3.74;77.38
42003;BME280;27693;50.506;30.832;2023-03-15T01:37:37;99093.30;;;3.74;77.38
42003;BME280;27693;50.506;30.832;2023-03-15T01:38:41;99101.83;;;3.76;77.55
42003;BME280;27693;50.506;30.832;2023-03-15T01:39:44;99098.38;;;3.77;77.60
42003;BME280;27693;50.506;30.832;2023-03-15T01:40:46;99088.10;;;3.75;77.74
42003;BME280;27693;50.506;30.832;2023-03-15T01:41:49;99093.23;;;3.77;78.05
42003;BME280;27693;50.506;30.832;2023-03-15T01:44:17;99083.94;;;3.71;77.79
42003;BME280;27693;50.506;30.832;2023-03-15T01:46:47;99083.25;;;3.64;77.60
42003;BME280;27693;50.506;30.832;2023-03-15T01:47:52;99087.50;;;3.67;77.93
42003;BME280;27693;50.506;30.832;2023-03-15T01:49:06;99090.95;;;3.66;78.09
42003;BME280;27693;50.506;30.832;2023-03-15T01:50:11;99086.64;;;3.66;78.15
42003;BME280;27693;50.506;30.832;2023-03-15T01:52:30;99094.45;;;3.63;78.21
42003;BME280;27693;50.506;30.832;2023-03-15T01:53:36;99089.20;;;3.66;78.25
42003;BME280;27693;50.506;30.832;2023-03-15T01:55:47;99096.69;;;3.76;78.64
42003;BME280;27693;50.506;30.832;2023-03-15T01:56:59;99100.14;;;3.75;78.29
42003;BME280;27693;50.506;30.832;2023-03-15T01:58:01;99101.90;;;3.73;78.33
42003;BME280;27693;50.506;30.832;2023-03-15T01:59:09;99107.16;;;3.68;78.27
42003;BME280;27693;50.506;30.832;2023-03-15T02:00:15;99100.38;;;3.65;78.21
42003;BME280;27693;50.506;30.832;2023-03-15T02:01:26;99100.48;;;3.62;78.43
42003;BME280;27693;50.506;30.832;2023-03-15T02:02:29;99103.00;;;3.64;78.47
42003;BME280;27693;50.506;30.832;2023-03-15T02:03:35;99103.83;;;3.64;78.51
42003;BME280;27693;50.506;30.832;2023-03-15T02:04:51;99094.06;;;3.77;78.98
42003;BME280;27693;50.506;30.832;2023-03-15T02:05:58;99106.50;;;3.61;78.69
42003;BME280;27693;50.506;30.832;2023-03-15T02:07:07;99108.91;;;3.67;79.43
42003;BME280;27693;50.506;30.832;2023-03-15T02:08:15;99104.57;;;3.70;79.30
42003;BME280;27693;50.506;30.832;2023-03-15T02:09:21;99097.46;;;3.78;79.54
42003;BME280;27693;50.506;30.832;2023-03-15T02:10:51;99098.62;;;3.67;78.15
42003;BME280;27693;50.506;30.832;2023-03-15T02:11:41;99095.23;;;3.65;78.61
42003;BME280;27693;50.506;30.832;2023-03-15T02:12:49;99091.95;;;3.60;79.03
42003;BME280;27693;50.506;30.832;2023-03-15T02:13:54;99090.97;;;3.64;79.17
42003;BME280;27693;50.506;30.832;2023-03-15T02:15:02;99096.22;;;3.61;78.90
42003;BME280;27693;50.506;30.832;2023-03-15T02:16:06;99088.56;;;3.58;78.93
42003;BME280;27693;50.506;30.832;2023-03-15T02:17:10;99092.88;;;3.58;79.10
42003;BME280;27693;50.506;30.832;2023-03-15T02:18:15;99098.86;;;3.58;79.65
42003;BME280;27693;50.506;30.832;2023-03-15T02:19:28;99097.09;;;3.60;79.54
42003;BME280;27693;50.506;30.832;2023-03-15T02:23:23;99090.27;;;3.59;80.05
42003;BME280;27693;50.506;30.832;2023-03-15T02:27:32;99099.02;;;3.52;80.27
42003;BME280;27693;50.506;30.832;2023-03-15T02:28:31;99095.67;;;3.50;79.89
42003;BME280;27693;50.506;30.832;2023-03-15T02:29:36;99088.08;;;3.45;79.61
42003;BME280;27693;50.506;30.832;2023-03-15T02:30:38;99094.86;;;3.48;79.70
42003;BME280;27693;50.506;30.832;2023-03-15T02:31:42;99086.28;;;3.47;80.09
42003;BME280;27693;50.506;30.832;2023-03-15T02:32:45;99087.22;;;3.45;80.14
42003;BME280;27693;50.506;30.832;2023-03-15T02:33:52;99089.78;;;3.45;80.30
42003;BME280;27693;50.506;30.832;2023-03-15T02:34:57;99091.59;;;3.41;80.12
42003;BME280;27693;50.506;30.832;2023-03-15T02:37:13;99092.36;;;3.45;80.21
42003;BME280;27693;50.506;30.832;2023-03-15T02:38:16;99086.44;;;3.43;79.98
42003;BME280;27693;50.506;30.832;2023-03-15T02:39:20;99082.00;;;3.48;80.87
42003;BME280;27693;50.506;30.832;2023-03-15T02:40:25;99084.58;;;3.48;81.19
42003;BME280;27693;50.506;30.832;2023-03-15T02:41:34;99083.93;;;3.40;80.47
42003;BME280;27693;50.506;30.832;2023-03-15T02:42:36;99082.34;;;3.35;80.14
42003;BME280;27693;50.506;30.832;2023-03-15T02:43:40;99084.86;;;3.37;80.94
42003;BME280;27693;50.506;30.832;2023-03-15T02:44:46;99073.64;;;3.40;81.15
42003;BME280;27693;50.506;30.832;2023-03-15T02:45:50;99083.12;;;3.38;80.95
42003;BME280;27693;50.506;30.832;2023-03-15T02:46:56;99072.88;;;3.36;80.63
42003;BME280;27693;50.506;30.832;2023-03-15T02:48:01;99084.81;;;3.39;80.86
42003;BME280;27693;50.506;30.832;2023-03-15T02:49:06;99087.38;;;3.39;80.78
42003;BME280;27693;50.506;30.832;2023-03-15T02:50:10;99073.71;;;3.36;81.23
42003;BME280;27693;50.506;30.832;2023-03-15T02:51:18;99077.27;;;3.32;80.91
42003;BME280;27693;50.506;30.832;2023-03-15T02:52:22;99075.57;;;3.31;80.98
42003;BME280;27693;50.506;30.832;2023-03-15T02:53:24;99065.39;;;3.28;80.93
42003;BME280;27693;50.506;30.832;2023-03-15T02:54:26;99066.27;;;3.27;81.06
42003;BME280;27693;50.506;30.832;2023-03-15T02:55:29;99067.09;;;3.28;81.35
42003;BME280;27693;50.506;30.832;2023-03-15T02:56:34;99073.81;;;3.33;81.87
42003;BME280;27693;50.506;30.832;2023-03-15T02:57:37;99068.67;;;3.33;81.87
42003;BME280;27693;50.506;30.832;2023-03-15T02:58:40;99061.77;;;3.35;81.58
42003;BME280;27693;50.506;30.832;2023-03-15T02:59:43;99065.12;;;3.38;81.79
42003;BME280;27693;50.506;30.832;2023-03-15T03:00:46;99062.77;;;3.30;81.02
42003;BME280;27693;50.506;30.832;2023-03-15T03:01:49;99064.45;;;3.31;81.55
42003;BME280;27693;50.506;30.832;2023-03-15T03:02:52;99062.05;;;3.25;81.54
42003;BME280;27693;50.506;30.832;2023-03-15T03:03:55;99060.14;;;3.31;82.04
42003;BME280;27693;50.506;30.832;2023-03-15T03:04:59;99066.05;;;3.35;81.70
42003;BME280;27693;50.506;30.832;2023-03-15T03:06:01;99067.09;;;3.28;81.46
42003;BME280;27693;50.506;30.832;2023-03-15T03:07:05;99058.55;;;3.27;81.50
42003;BME280;27693;50.506;30.832;2023-03-15T03:08:09;99066.33;;;3.24;81.64
42003;BME280;27693;50.506;30.832;2023-03-15T03:09:11;99070.43;;;3.31;82.15
42003;BME280;27693;50.506;30.832;2023-03-15T03:10:17;99062.77;;;3.30;82.53
42003;BME280;27693;50.506;30.832;2023-03-15T03:11:21;99060.24;;;3.28;82.31
42003;BME280;27693;50.506;30.832;2023-03-15T03:12:24;99061.84;;;3.32;82.48
42003;BME280;27693;50.506;30.832;2023-03-15T03:13:28;99055.10;;;3.28;81.86
42003;BME280;27693;50.506;30.832;2023-03-15T03:14:30;99059.50;;;3.23;81.94
42003;BME280;27693;50.506;30.832;2023-03-15T03:15:33;99049.09;;;3.28;82.43
42003;BME280;27693;50.506;30.832;2023-03-15T03:16:35;99050.84;;;3.27;82.30
42003;BME280;27693;50.506;30.832;2023-03-15T03:17:38;99056.80;;;3.29;81.89
42003;BME280;27693;50.506;30.832;2023-03-15T03:18:41;99055.88;;;3.30;82.19
42003;BME280;27693;50.506;30.832;2023-03-15T03:19:44;99051.72;;;3.26;81.83
42003;BME280;27693;50.506;30.832;2023-03-15T03:20:48;99053.58;;;3.21;81.82
42003;BME280;27693;50.506;30.832;2023-03-15T03:21:51;99063.86;;;3.21;81.94
42003;BME280;27693;50.506;30.832;2023-03-15T03:22:55;99064.78;;;3.18;82.17
42003;BME280;27693;50.506;30.832;2023-03-15T03:23:57;99057.79;;;3.24;82.51
42003;BME280;27693;50.506;30.832;2023-03-15T03:24:59;99050.03;;;3.25;82.88
42003;BME280;27693;50.506;30.832;2023-03-15T03:26:10;99057.19;;;3.14;82.42
42003;BME280;27693;50.506;30.832;2023-03-15T03:27:09;99055.40;;;3.16;82.24
42003;BME280;27693;50.506;30.832;2023-03-15T03:28:12;99054.50;;;3.18;82.93
42003;BME280;27693;50.506;30.832;2023-03-15T03:29:15;99051.95;;;3.17;83.24
42003;BME280;27693;50.506;30.832;2023-03-15T03:30:18;99061.47;;;3.13;83.07
42003;BME280;27693;50.506;30.832;2023-03-15T03:31:24;99060.70;;;3.10;82.88
42003;BME280;27693;50.506;30.832;2023-03-15T03:32:27;99059.05;;;3.09;83.23
42003;BME280;27693;50.506;30.832;2023-03-15T03:33:29;99061.52;;;3.12;83.42
42003;BME280;27693;50.506;30.832;2023-03-15T03:34:33;99052.88;;;3.14;83.42
42003;BME280;27693;50.506;30.832;2023-03-15T03:35:36;99057.35;;;3.08;83.30
42003;BME280;27693;50.506;30.832;2023-03-15T03:36:38;99063.37;;;3.07;83.50
42003;BME280;27693;50.506;30.832;2023-03-15T03:37:42;99063.20;;;3.13;83.51
42003;BME280;27693;50.506;30.832;2023-03-15T03:38:47;99060.03;;;3.03;83.30
42003;BME280;27693;50.506;30.832;2023-03-15T03:39:49;99061.56;;;3.10;84.25
42003;BME280;27693;50.506;30.832;2023-03-15T03:40:52;99063.26;;;3.11;84.12
42003;BME280;27693;50.506;30.832;2023-03-15T03:41:55;99063.42;;;3.05;83.55
42003;BME280;27693;50.506;30.832;2023-03-15T03:42:57;99068.63;;;3.02;83.73
42003;BME280;27693;50.506;30.832;2023-03-15T03:44:00;99065.22;;;3.01;84.05
42003;BME280;27693;50.506;30.832;2023-03-15T03:45:03;99064.41;;;2.99;84.10
42003;BME280;27693;50.506;30.832;2023-03-15T03:46:08;99063.64;;;2.96;83.96
42003;BME280;27693;50.506;30.832;2023-03-15T03:47:12;99063.59;;;2.97;84.79
42003;BME280;27693;50.506;30.832;2023-03-15T03:48:15;99061.95;;;2.95;84.34
42003;BME280;27693;50.506;30.832;2023-03-15T03:49:19;99055.98;;;2.94;84.35
42003;BME280;27693;50.506;30.832;2023-03-15T03:50:22;99056.86;;;2.93;84.86
42003;BME280;27693;50.506;30.832;2023-03-15T03:51:24;99058.50;;;2.96;85.15
42003;BME280;27693;50.506;30.832;2023-03-15T03:52:27;99063.75;;;2.91;85.02
42003;BME280;27693;50.506;30.832;2023-03-15T03:53:31;99062.94;;;2.89;85.32
42003;BME280;27693;50.506;30.832;2023-03-15T03:54:34;99060.34;;;2.91;85.27
42003;BME280;27693;50.506;30.832;2023-03-15T03:55:37;99061.23;;;2.90;84.97
42003;BME280;27693;50.506;30.832;2023-03-15T03:56:39;99070.58;;;2.92;85.25
42003;BME280;27693;50.506;30.832;2023-03-15T03:57:43;99068.01;;;2.92;85.43
42003;BME280;27693;50.506;30.832;2023-03-15T03:58:47;99054.34;;;2.90;85.26
42003;BME280;27693;50.506;30.832;2023-03-15T03:59:52;99066.36;;;2.90;85.16
42003;BME280;27693;50.506;30.832;2023-03-15T04:00:55;99062.05;;;2.90;84.93
42003;BME280;27693;50.506;30.832;2023-03-15T04:01:59;99065.44;;;2.92;85.10
42003;BME280;27693;50.506;30.832;2023-03-15T04:03:01;99061.02;;;2.97;85.34
42003;BME280;27693;50.506;30.832;2023-03-15T04:05:10;99058.41;;;2.99;85.11
42003;BME280;27693;50.506;30.832;2023-03-15T04:06:14;99061.89;;;2.98;85.11
42003;BME280;27693;50.506;30.832;2023-03-15T04:07:18;99065.44;;;2.92;84.57
42003;BME280;27693;50.506;30.832;2023-03-15T04:08:23;99064.41;;;2.99;85.11
42003;BME280;27693;50.506;30.832;2023-03-15T04:09:26;99072.52;;;3.17;85.29
42003;BME280;27693;50.506;30.832;2023-03-15T04:10:28;99066.59;;;3.15;84.86
42003;BME280;27693;50.506;30.832;2023-03-15T04:11:33;99067.62;;;3.08;85.00
42003;BME280;27693;50.506;30.832;2023-03-15T04:12:41;99067.62;;;3.08;85.00
42003;BME280;27693;50.506;30.832;2023-03-15T04:13:45;99074.59;;;3.02;84.48
42003;BME280;27693;50.506;30.832;2023-03-15T04:14:48;99069.34;;;3.07;84.76
42003;BME280;27693;50.506;30.832;2023-03-15T04:15:52;99075.97;;;3.16;85.32
42003;BME280;27693;50.506;30.832;2023-03-15T04:16:56;99064.31;;;3.02;84.78
42003;BME280;27693;50.506;30.832;2023-03-15T04:17:59;99064.31;;;3.02;84.78
42003;BME280;27693;50.506;30.832;2023-03-15T04:19:08;99067.62;;;3.08;85.01
42003;BME280;27693;50.506;30.832;2023-03-15T04:20:11;99067.70;;;3.04;85.11
42003;BME280;27693;50.506;30.832;2023-03-15T04:21:16;99072.77;;;3.08;84.97
42003;BME280;27693;50.506;30.832;2023-03-15T04:22:20;99078.79;;;3.07;84.91
42003;BME280;27693;50.506;30.832;2023-03-15T04:23:24;99070.31;;;3.03;84.90
42003;BME280;27693;50.506;30.832;2023-03-15T04:24:32;99076.28;;;3.03;85.09
42003;BME280;27693;50.506;30.832;2023-03-15T04:25:48;99074.64;;;3.01;85.14
42003;BME280;27693;50.506;30.832;2023-03-15T04:26:53;99072.95;;;3.00;85.19
42003;BME280;27693;50.506;30.832;2023-03-15T04:28:02;99077.46;;;2.92;85.21
42003;BME280;27693;50.506;30.832;2023-03-15T04:29:08;99078.35;;;2.89;85.18
42003;BME280;27693;50.506;30.832;2023-03-15T04:30:19;99077.46;;;2.92;85.22
42003;BME280;27693;50.506;30.832;2023-03-15T04:31:25;99070.64;;;2.89;85.21
42003;BME280;27693;50.506;30.832;2023-03-15T04:32:32;99075.88;;;2.86;85.01
42003;BME280;27693;50.506;30.832;2023-03-15T04:33:49;99070.64;;;2.89;85.65
42003;BME280;27693;50.506;30.832;2023-03-15T04:35:07;99069.70;;;2.93;85.54
42003;BME280;27693;50.506;30.832;2023-03-15T04:36:29;99066.86;;;3.04;85.89
42003;BME280;27693;50.506;30.832;2023-03-15T04:37:42;99069.23;;;3.12;86.06
42003;BME280;27693;50.506;30.832;2023-03-15T04:38:50;99069.23;;;3.12;85.35
42003;BME280;27693;50.506;30.832;2023-03-15T04:40:00;99072.77;;;3.08;85.25
42003;BME280;27693;50.506;30.832;2023-03-15T04:41:19;99070.27;;;3.04;85.28
42003;BME280;27693;50.506;30.832;2023-03-15T04:42:32;99067.70;;;3.04;85.53
42003;BME280;27693;50.506;30.832;2023-03-15T04:43:37;99072.84;;;3.04;86.08
42003;BME280;27693;50.506;30.832;2023-03-15T04:44:41;99076.13;;;3.10;86.22
42003;BME280;27693;50.506;30.832;2023-03-15T04:45:54;99075.25;;;3.11;86.17
42003;BME280;27693;50.506;30.832;2023-03-15T04:47:05;99073.98;;;3.27;86.37
42003;BME280;27693;50.506;30.832;2023-03-15T04:48:10;99084.16;;;3.30;85.80
42003;BME280;27693;50.506;30.832;2023-03-15T04:49:14;99080.64;;;3.34;85.88
42003;BME280;27693;50.506;30.832;2023-03-15T04:50:28;99078.86;;;3.36;86.18
42003;BME280;27693;50.506;30.832;2023-03-15T04:51:42;99072.59;;;3.47;86.40
42003;BME280;27693;50.506;30.832;2023-03-15T04:52:47;99084.47;;;3.51;85.83
42003;BME280;27693;50.506;30.832;2023-03-15T04:53:57;99081.07;;;3.50;85.32
42003;BME280;27693;50.506;30.832;2023-03-15T04:55:18;99075.83;;;3.54;85.33
42003;BME280;27693;50.506;30.832;2023-03-15T04:56:38;99083.52;;;3.55;84.53
42003;BME280;27693;50.506;30.832;2023-03-15T04:57:59;99083.77;;;3.46;84.31
42003;BME280;27693;50.506;30.832;2023-03-15T04:59:16;99089.84;;;3.43;84.46
42003;BME280;27693;50.506;30.832;2023-03-15T05:00:26;99081.36;;;3.40;84.53
42003;BME280;27693;50.506;30.832;2023-03-15T05:01:37;99084.16;;;3.30;84.60
42003;BME280;27693;50.506;30.832;2023-03-15T05:02:41;99091.16;;;3.25;84.79
42003;BME280;27693;50.506;30.832;2023-03-15T05:03:56;99092.91;;;3.25;85.01
42003;BME280;27693;50.506;30.832;2023-03-15T05:05:01;99091.32;;;3.19;84.92
42003;BME280;27693;50.506;30.832;2023-03-15T05:06:05;99084.58;;;3.15;85.23
42003;BME280;27693;50.506;30.832;2023-03-15T05:07:20;99086.41;;;3.10;85.56
42003;BME280;27693;50.506;30.832;2023-03-15T05:08:40;99083.98;;;3.05;85.05
42003;BME280;27693;50.506;30.832;2023-03-15T05:10:06;99086.41;;;3.10;85.16
42003;BME280;27693;50.506;30.832;2023-03-15T05:11:10;99093.06;;;3.18;85.27
42003;BME280;27693;50.506;30.832;2023-03-15T05:12:20;99084.70;;;3.10;85.21
42003;BME280;27693;50.506;30.832;2023-03-15T05:13:28;99084.80;;;3.06;85.45
42003;BME280;27693;50.506;30.832;2023-03-15T05:14:35;99089.95;;;3.06;85.78
42003;BME280;27693;50.506;30.832;2023-03-15T05:15:56;99090.60;;;3.14;85.91
42003;BME280;27693;50.506;30.832;2023-03-15T05:17:18;99084.59;;;3.13;85.91
42003;BME280;27693;50.506;30.832;2023-03-15T05:18:29;99088.03;;;3.14;85.79
42003;BME280;27693;50.506;30.832;2023-03-15T05:19:53;99088.97;;;3.10;85.82
42003;BME280;27693;50.506;30.832;2023-03-15T05:20:58;99095.80;;;3.12;85.91
42003;BME280;27693;50.506;30.832;2023-03-15T05:22:05;99099.19;;;3.13;85.89
42003;BME280;27693;50.506;30.832;2023-03-15T05:23:12;99096.69;;;3.10;85.95
42003;BME280;27693;50.506;30.832;2023-03-15T05:24:18;99105.16;;;3.13;86.12
42003;BME280;27693;50.506;30.832;2023-03-15T05:25:22;99099.91;;;3.18;86.08
42003;BME280;27693;50.506;30.832;2023-03-15T05:26:39;99098.06;;;3.23;86.06
42003;BME280;27693;50.506;30.832;2023-03-15T05:27:55;99103.36;;;3.17;85.81
42003;BME280;27693;50.506;30.832;2023-03-15T05:29:02;99104.98;;;3.21;85.92
42003;BME280;27693;50.506;30.832;2023-03-15T05:30:25;99103.14;;;3.26;85.77
42003;BME280;27693;50.506;30.832;2023-03-15T05:31:36;99101.28;;;3.31;85.92
42003;BME280;27693;50.506;30.832;2023-03-15T05:32:43;99106.31;;;3.36;85.81
42003;BME280;27693;50.506;30.832;2023-03-15T05:33:51;99108.83;;;3.38;85.43
42003;BME280;27693;50.506;30.832;2023-03-15T05:35:14;99113.91;;;3.41;85.65
42003;BME280;27693;50.506;30.832;2023-03-15T05:36:22;99107.19;;;3.35;85.61
42003;BME280;27693;50.506;30.832;2023-03-15T05:37:43;99114.85;;;3.36;85.55
42003;BME280;27693;50.506;30.832;2023-03-15T05:39:03;99106.19;;;3.41;85.56
42003;BME280;27693;50.506;30.832;2023-03-15T05:40:13;99101.70;;;3.49;85.39
42003;BME280;27693;50.506;30.832;2023-03-15T05:41:24;99102.81;;;3.39;85.41
42003;BME280;27693;50.506;30.832;2023-03-15T05:42:44;99113.35;;;3.29;85.21
42003;BME280;27693;50.506;30.832;2023-03-15T05:43:56;99104.27;;;3.49;85.53
42003;BME280;27693;50.506;30.832;2023-03-15T05:45:00;99113.35;;;3.29;85.37
42003;BME280;27693;50.506;30.832;2023-03-15T05:46:20;99103.02;;;3.31;85.66
42003;BME280;27693;50.506;30.832;2023-03-15T05:47:25;99113.09;;;3.39;85.74
42003;BME280;27693;50.506;30.832;2023-03-15T05:48:46;99114.85;;;3.36;85.77
42003;BME280;27693;50.506;30.832;2023-03-15T05:50:08;99120.00;;;3.36;85.65
42003;BME280;27693;50.506;30.832;2023-03-15T05:51:13;99116.55;;;3.38;85.85
42003;BME280;27693;50.506;30.832;2023-03-15T05:52:21;99114.02;;;3.36;85.66
42003;BME280;27693;50.506;30.832;2023-03-15T05:53:26;99111.39;;;3.39;85.57
42003;BME280;27693;50.506;30.832;2023-03-15T05:54:33;99110.30;;;3.48;85.49
42003;BME280;27693;50.506;30.832;2023-03-15T05:55:37;99102.46;;;3.53;85.36
42003;BME280;27693;50.506;30.832;2023-03-15T05:56:45;99102.46;;;3.53;85.36
42003;BME280;27693;50.506;30.832;2023-03-15T05:57:49;99109.13;;;3.60;85.34
42003;BME280;27693;50.506;30.832;2023-03-15T05:58:53;99103.23;;;3.55;85.01
42003;BME280;27693;50.506;30.832;2023-03-15T05:59:58;99107.45;;;3.57;85.14
42003;BME280;27693;50.506;30.832;2023-03-15T06:01:15;99108.48;;;3.51;85.04
42003;BME280;27693;50.506;30.832;2023-03-15T06:02:29;99107.55;;;3.54;85.14